Time;durP1;ratioP1;P1;durP2;ratioP2;P2;SDS_P1;SDS_P2;PMS_P1;PMS_P2;Temp;Humidity;BMP_temperature;BMP_pressure;BME280_temperature;BME280_humidity;BME280_pressure;Samples;Min_cycle;Max_cycle;Signal;HPM_P1;HPM_P2
2023/07/30 00:00:22;;;;;;;24.08;5.47;;;;;;;;;;5016781;28;20085;-73
2023/07/30 00:02:48;;;;;;;29.90;5.60;;;;;;;;;;5026419;28;20095;-74
2023/07/30 00:05:14;;;;;;;19.02;5.45;;;;;;;;;;5038454;28;20128;-73
2023/07/30 00:07:40;;;;;;;21.20;6.55;;;;;;;;;;5051634;28;20071;-73
2023/07/30 00:10:07;;;;;;;18.98;5.13;;;;;;;;;;5038473;28;20046;-72
2023/07/30 00:12:33;;;;;;;19.42;5.30;;;;;;;;;;5038566;28;20438;-72
2023/07/30 00:14:59;;;;;;;26.00;5.95;;;;;;;;;;5038567;28;20041;-72
2023/07/30 00:17:25;;;;;;;20.10;5.72;;;;;;;;;;5036441;28;20049;-73
2023/07/30 00:19:51;;;;;;;25.00;5.63;;;;;;;;;;5049392;28;20040;-73
2023/07/30 00:22:17;;;;;;;28.42;6.45;;;;;;;;;;5037777;28;20041;-73
2023/07/30 00:24:43;;;;;;;22.33;5.93;;;;;;;;;;5043529;28;20112;-73
2023/07/30 00:27:09;;;;;;;25.02;6.10;;;;;;;;;;5045454;28;20048;-73
2023/07/30 00:29:35;;;;;;;17.00;5.28;;;;;;;;;;5032248;28;20063;-73
2023/07/30 00:32:01;;;;;;;26.13;6.35;;;;;;;;;;5031870;28;20484;-73
2023/07/30 00:34:27;;;;;;;20.42;5.78;;;;;;;;;;5048396;28;20102;-73
2023/07/30 00:36:53;;;;;;;21.73;5.65;;;;;;;;;;5031238;28;20045;-73
2023/07/30 00:39:19;;;;;;;21.73;5.57;;;;;;;;;;5014412;28;20041;-72
2023/07/30 00:41:45;;;;;;;24.55;5.40;;;;;;;;;;5029715;28;20063;-73
2023/07/30 00:44:11;;;;;;;26.33;5.75;;;;;;;;;;5033053;28;20076;-73
2023/07/30 00:46:38;;;;;;;24.35;5.80;;;;;;;;;;5037906;28;20037;-72
2023/07/30 00:49:04;;;;;;;23.50;5.28;;;;;;;;;;5032421;28;20087;-72
2023/07/30 00:51:32;;;;;;;22.83;5.50;;;;;;;;;;5016584;28;20099;-73
2023/07/30 00:53:58;;;;;;;28.40;5.47;;;;;;;;;;5034871;28;20068;-72
2023/07/30 00:56:24;;;;;;;21.48;5.57;;;;;;;;;;5030815;28;20056;-72
2023/07/30 00:58:50;;;;;;;24.40;4.80;;;;;;;;;;5031956;28;20044;-72
2023/07/30 01:01:16;;;;;;;23.58;5.85;;;;;;;;;;5043575;28;20081;-72
2023/07/30 01:03:42;;;;;;;25.75;5.63;;;;;;;;;;5044146;28;20041;-73
2023/07/30 01:06:08;;;;;;;26.17;5.43;;;;;;;;;;5044747;28;20052;-73
2023/07/30 01:08:35;;;;;;;28.45;5.72;;;;;;;;;;5017956;28;20069;-73
2023/07/30 01:11:02;;;;;;;22.92;5.22;;;;;;;;;;5032684;28;20045;-73
2023/07/30 01:13:29;;;;;;;24.63;4.75;;;;;;;;;;5033222;28;20041;-74
2023/07/30 01:15:55;;;;;;;24.70;5.03;;;;;;;;;;5037098;28;20451;-73
2023/07/30 01:18:21;;;;;;;22.73;4.65;;;;;;;;;;5050795;28;20068;-73
2023/07/30 01:20:47;;;;;;;24.10;4.82;;;;;;;;;;5044641;28;20085;-73
2023/07/30 01:23:13;;;;;;;19.98;5.10;;;;;;;;;;5039721;28;20052;-74
2023/07/30 01:25:40;;;;;;;24.20;5.20;;;;;;;;;;5034559;28;20083;-73
2023/07/30 01:28:07;;;;;;;25.25;5.43;;;;;;;;;;5036069;28;20095;-74
2023/07/30 01:30:37;;;;;;;27.95;5.80;;;;;;;;;;5032917;28;20038;-74
2023/07/30 01:33:04;;;;;;;23.17;4.65;;;;;;;;;;5045766;28;20048;-73
2023/07/30 01:35:31;;;;;;;23.38;5.60;;;;;;;;;;5036810;28;20041;-73
2023/07/30 01:37:57;;;;;;;22.75;4.85;;;;;;;;;;5030361;28;20045;-73
2023/07/30 01:40:24;;;;;;;23.40;4.93;;;;;;;;;;5042852;28;20127;-73
2023/07/30 01:42:50;;;;;;;24.25;4.90;;;;;;;;;;5049967;28;20033;-73
2023/07/30 01:45:16;;;;;;;26.85;5.68;;;;;;;;;;5048936;28;20044;-72
2023/07/30 01:47:43;;;;;;;21.05;5.22;;;;;;;;;;5031468;28;20438;-73
2023/07/30 01:50:09;;;;;;;19.80;4.70;;;;;;;;;;5049286;28;20128;-73
2023/07/30 01:52:35;;;;;;;23.42;5.45;;;;;;;;;;5033378;28;20495;-73
2023/07/30 01:55:01;;;;;;;21.48;5.00;;;;;;;;;;5042260;28;20483;-73
2023/07/30 01:57:27;;;;;;;23.42;5.35;;;;;;;;;;5052197;28;20055;-73
2023/07/30 01:59:53;;;;;;;20.42;4.50;;;;;;;;;;5020032;28;20534;-72
2023/07/30 02:02:19;;;;;;;24.05;4.35;;;;;;;;;;5039685;28;20068;-72
2023/07/30 02:04:45;;;;;;;23.35;4.68;;;;;;;;;;5049676;28;20071;-72
2023/07/30 02:07:12;;;;;;;20.40;4.70;;;;;;;;;;5016949;28;20045;-73
2023/07/30 02:09:38;;;;;;;19.10;4.45;;;;;;;;;;5035314;28;20476;-73
2023/07/30 02:12:04;;;;;;;20.50;4.35;;;;;;;;;;5041465;28;20088;-73
2023/07/30 02:14:30;;;;;;;22.08;4.60;;;;;;;;;;5037448;28;20076;-72
2023/07/30 02:16:56;;;;;;;24.05;4.85;;;;;;;;;;5053287;28;20049;-70
2023/07/30 02:19:22;;;;;;;23.75;4.55;;;;;;;;;;5037369;28;20049;-70
2023/07/30 02:21:48;;;;;;;23.67;4.93;;;;;;;;;;5038796;28;20099;-73
2023/07/30 02:24:14;;;;;;;26.75;5.68;;;;;;;;;;5046098;28;20049;-73
2023/07/30 02:26:40;;;;;;;25.38;4.80;;;;;;;;;;5034495;28;20399;-72
2023/07/30 02:29:07;;;;;;;22.58;4.60;;;;;;;;;;5034029;28;20077;-73
2023/07/30 02:31:33;;;;;;;21.00;4.15;;;;;;;;;;5027812;28;20098;-72
2023/07/30 02:33:59;;;;;;;26.20;4.55;;;;;;;;;;5050975;28;20517;-72
2023/07/30 02:36:25;;;;;;;22.50;5.07;;;;;;;;;;5040131;28;20077;-71
2023/07/30 02:38:51;;;;;;;22.83;5.38;;;;;;;;;;5052532;28;20124;-73
2023/07/30 02:41:17;;;;;;;21.77;4.85;;;;;;;;;;5033966;28;20063;-73
2023/07/30 02:43:43;;;;;;;24.48;5.22;;;;;;;;;;5029491;28;20051;-72
2023/07/30 02:46:10;;;;;;;20.30;4.45;;;;;;;;;;5052562;28;20402;-72
2023/07/30 02:48:36;;;;;;;17.42;4.50;;;;;;;;;;5028655;28;20391;-72
2023/07/30 02:51:02;;;;;;;18.90;4.32;;;;;;;;;;5035803;28;20447;-72
2023/07/30 02:53:28;;;;;;;23.17;4.80;;;;;;;;;;5042234;28;20045;-72
2023/07/30 02:55:54;;;;;;;16.17;4.32;;;;;;;;;;5037054;28;20541;-72
2023/07/30 02:58:20;;;;;;;21.27;4.70;;;;;;;;;;5039748;28;20496;-71
2023/07/30 03:00:46;;;;;;;24.60;5.35;;;;;;;;;;5042830;28;20502;-72
2023/07/30 03:03:12;;;;;;;22.50;4.47;;;;;;;;;;5035725;28;20506;-72
2023/07/30 03:05:42;;;;;;;23.45;5.15;;;;;;;;;;5042734;28;20044;-72
2023/07/30 03:08:08;;;;;;;25.77;5.38;;;;;;;;;;5045021;28;20053;-72
2023/07/30 03:10:34;;;;;;;23.92;4.82;;;;;;;;;;5042028;28;20049;-71
2023/07/30 03:13:00;;;;;;;29.15;5.55;;;;;;;;;;5051503;28;20517;-72
2023/07/30 03:15:27;;;;;;;24.05;5.10;;;;;;;;;;5040002;28;20541;-73
2023/07/30 03:17:53;;;;;;;25.35;5.30;;;;;;;;;;5050727;28;20044;-73
2023/07/30 03:20:19;;;;;;;28.30;4.72;;;;;;;;;;5038631;28;20048;-73
2023/07/30 03:22:45;;;;;;;21.33;4.10;;;;;;;;;;5052683;28;20074;-73
2023/07/30 03:25:12;;;;;;;23.17;5.15;;;;;;;;;;5035284;28;20484;-72
2023/07/30 03:27:38;;;;;;;22.52;5.00;;;;;;;;;;5052148;28;20433;-72
2023/07/30 03:30:04;;;;;;;26.65;5.13;;;;;;;;;;5037911;28;20045;-73
2023/07/30 03:32:31;;;;;;;25.05;4.88;;;;;;;;;;5040448;28;20360;-72
2023/07/30 03:34:57;;;;;;;23.23;4.40;;;;;;;;;;5052252;28;20124;-72
2023/07/30 03:37:23;;;;;;;24.15;4.97;;;;;;;;;;5052308;28;20044;-73
2023/07/30 03:39:49;;;;;;;28.20;5.10;;;;;;;;;;5020104;28;20125;-73
2023/07/30 03:42:15;;;;;;;23.33;4.65;;;;;;;;;;5015538;28;20087;-72
2023/07/30 03:44:41;;;;;;;31.85;5.57;;;;;;;;;;5033691;28;20543;-73
2023/07/30 03:47:07;;;;;;;19.30;4.22;;;;;;;;;;5032042;28;20503;-73
2023/07/30 03:49:33;;;;;;;27.45;5.10;;;;;;;;;;5034390;28;20041;-73
2023/07/30 03:52:00;;;;;;;23.73;5.20;;;;;;;;;;5052164;28;20131;-72
2023/07/30 03:54:26;;;;;;;28.58;5.57;;;;;;;;;;5019367;28;20048;-72
2023/07/30 03:56:52;;;;;;;24.65;5.22;;;;;;;;;;5031643;28;20633;-72
2023/07/30 03:59:18;;;;;;;21.50;5.00;;;;;;;;;;5039003;28;20106;-72
2023/07/30 04:01:44;;;;;;;27.05;5.22;;;;;;;;;;5045528;28;20040;-73
2023/07/30 04:04:10;;;;;;;28.58;5.18;;;;;;;;;;5030555;28;20048;-73
2023/07/30 04:06:36;;;;;;;26.50;4.68;;;;;;;;;;5041110;28;20040;-72
2023/07/30 04:09:03;;;;;;;22.90;4.90;;;;;;;;;;5008567;28;20064;-73
2023/07/30 04:11:29;;;;;;;25.92;4.97;;;;;;;;;;5031600;28;20037;-73
2023/07/30 04:13:55;;;;;;;24.38;4.70;;;;;;;;;;5026255;28;20049;-73
2023/07/30 04:16:21;;;;;;;23.70;4.40;;;;;;;;;;5024236;28;20047;-73
2023/07/30 04:18:47;;;;;;;23.42;5.18;;;;;;;;;;5018521;28;20037;-73
2023/07/30 04:21:15;;;;;;;24.00;5.18;;;;;;;;;;5005564;28;20045;-73
2023/07/30 04:23:41;;;;;;;29.02;5.03;;;;;;;;;;5034637;28;20098;-73
2023/07/30 04:26:07;;;;;;;18.75;4.30;;;;;;;;;;5034693;28;20064;-73
2023/07/30 04:28:33;;;;;;;21.67;5.05;;;;;;;;;;5048136;28;20041;-73
2023/07/30 04:30:59;;;;;;;14.88;4.25;;;;;;;;;;5018442;28;20487;-72
2023/07/30 04:33:26;;;;;;;23.38;5.45;;;;;;;;;;5033979;28;20453;-72
2023/07/30 04:35:52;;;;;;;18.90;4.53;;;;;;;;;;5034791;28;20110;-73
2023/07/30 04:38:18;;;;;;;26.55;4.47;;;;;;;;;;5034682;28;20059;-72
2023/07/30 04:40:44;;;;;;;23.77;4.40;;;;;;;;;;5032910;28;20040;-72
2023/07/30 04:43:10;;;;;;;17.92;4.00;;;;;;;;;;5028511;28;20041;-74
2023/07/30 04:45:36;;;;;;;18.95;4.45;;;;;;;;;;5025352;28;20037;-73
2023/07/30 04:48:02;;;;;;;23.90;4.70;;;;;;;;;;5034475;28;20076;-73
2023/07/30 04:50:28;;;;;;;22.45;4.32;;;;;;;;;;5017701;28;20077;-72
2023/07/30 04:52:55;;;;;;;20.52;4.50;;;;;;;;;;5030371;28;20457;-72
2023/07/30 04:55:21;;;;;;;20.08;4.50;;;;;;;;;;5031799;28;20060;-73
2023/07/30 04:57:47;;;;;;;27.33;5.13;;;;;;;;;;5034534;28;20057;-71
2023/07/30 05:00:13;;;;;;;24.00;4.38;;;;;;;;;;5017669;28;20396;-73
2023/07/30 05:02:39;;;;;;;20.25;4.30;;;;;;;;;;5038710;28;20067;-73
2023/07/30 05:05:05;;;;;;;23.70;4.85;;;;;;;;;;5046985;28;20495;-73
2023/07/30 05:07:31;;;;;;;21.63;4.80;;;;;;;;;;5006456;28;20446;-73
2023/07/30 05:09:57;;;;;;;24.90;4.50;;;;;;;;;;5014290;28;20069;-73
2023/07/30 05:12:23;;;;;;;19.55;4.18;;;;;;;;;;5014234;28;20045;-71
2023/07/30 05:14:49;;;;;;;20.80;4.70;;;;;;;;;;5015351;28;20121;-73
2023/07/30 05:17:16;;;;;;;20.60;4.25;;;;;;;;;;5015128;28;20049;-72
2023/07/30 05:19:42;;;;;;;21.58;3.90;;;;;;;;;;5020546;28;20499;-72
2023/07/30 05:22:08;;;;;;;19.25;4.28;;;;;;;;;;5014152;28;20049;-71
2023/07/30 05:24:36;;;;;;;17.10;3.75;;;;;;;;;;5015375;28;20045;-73
2023/07/30 05:27:02;;;;;;;19.45;4.32;;;;;;;;;;5013735;28;20038;-73
2023/07/30 05:29:28;;;;;;;21.35;4.88;;;;;;;;;;5008169;28;20399;-71
2023/07/30 05:31:54;;;;;;;19.45;4.22;;;;;;;;;;5036714;28;20115;-72
2023/07/30 05:34:20;;;;;;;19.85;4.15;;;;;;;;;;5024071;28;20052;-73
2023/07/30 05:36:47;;;;;;;17.13;3.92;;;;;;;;;;5014147;28;20091;-73
2023/07/30 05:39:13;;;;;;;20.08;4.03;;;;;;;;;;5003970;28;20041;-74
2023/07/30 05:41:39;;;;;;;20.35;4.22;;;;;;;;;;5021785;28;20116;-71
2023/07/30 05:44:05;;;;;;;22.58;5.40;;;;;;;;;;5004674;28;20045;-74
2023/07/30 05:46:31;;;;;;;20.00;4.10;;;;;;;;;;5016759;28;20508;-73
2023/07/30 05:48:57;;;;;;;19.02;4.30;;;;;;;;;;5031874;28;20589;-73
2023/07/30 05:51:23;;;;;;;18.95;3.90;;;;;;;;;;5020773;28;20111;-73
2023/07/30 05:53:49;;;;;;;22.30;4.97;;;;;;;;;;5013913;28;20057;-71
2023/07/30 05:56:18;;;;;;;25.10;5.10;;;;;;;;;;5026396;28;20037;-73
2023/07/30 05:58:44;;;;;;;22.38;4.20;;;;;;;;;;5030355;28;20045;-73
2023/07/30 06:01:11;;;;;;;23.25;4.47;;;;;;;;;;5030108;28;20048;-74
2023/07/30 06:03:37;;;;;;;20.40;4.03;;;;;;;;;;5030468;28;20446;-73
2023/07/30 06:06:03;;;;;;;20.70;4.32;;;;;;;;;;5027518;28;20049;-73
2023/07/30 06:08:30;;;;;;;21.40;4.15;;;;;;;;;;5047863;28;20033;-72
2023/07/30 06:10:57;;;;;;;19.10;3.92;;;;;;;;;;5038616;28;20564;-73
2023/07/30 06:13:23;;;;;;;16.08;3.80;;;;;;;;;;5034066;28;20076;-74
2023/07/30 06:15:49;;;;;;;25.08;4.78;;;;;;;;;;5050352;28;20049;-74
2023/07/30 06:18:15;;;;;;;22.13;4.10;;;;;;;;;;5037895;28;20530;-73
2023/07/30 06:20:41;;;;;;;18.10;3.60;;;;;;;;;;5033837;28;20037;-73
2023/07/30 06:23:07;;;;;;;26.90;3.90;;;;;;;;;;5034988;28;21126;-74
2023/07/30 06:25:33;;;;;;;14.77;4.40;;;;;;;;;;5019581;28;20059;-73
2023/07/30 06:27:59;;;;;;;17.63;3.63;;;;;;;;;;5030284;28;20130;-74
2023/07/30 06:30:25;;;;;;;18.10;3.60;;;;;;;;;;5029395;28;20048;-73
2023/07/30 06:32:51;;;;;;;13.80;3.45;;;;;;;;;;5025466;28;20091;-74
2023/07/30 06:35:17;;;;;;;18.33;3.75;;;;;;;;;;5047549;28;20513;-73
2023/07/30 06:37:43;;;;;;;10.77;2.58;;;;;;;;;;5037735;28;20048;-74
2023/07/30 06:40:09;;;;;;;12.30;2.80;;;;;;;;;;5052946;28;20076;-73
2023/07/30 06:42:36;;;;;;;12.30;2.50;;;;;;;;;;5028165;28;20044;-74
2023/07/30 06:45:02;;;;;;;14.13;2.90;;;;;;;;;;5037292;28;20037;-74
2023/07/30 06:47:28;;;;;;;11.23;2.58;;;;;;;;;;5052912;28;20037;-73
2023/07/30 06:49:54;;;;;;;12.68;2.78;;;;;;;;;;5053455;28;20060;-73
2023/07/30 06:52:20;;;;;;;11.25;2.50;;;;;;;;;;5037598;28;20053;-73
2023/07/30 06:54:46;;;;;;;13.30;2.40;;;;;;;;;;5023237;28;20106;-73
2023/07/30 06:57:12;;;;;;;13.95;2.50;;;;;;;;;;5018073;28;20036;-72
2023/07/30 06:59:38;;;;;;;11.15;3.00;;;;;;;;;;5032488;28;20046;-74
2023/07/30 07:02:05;;;;;;;15.13;2.85;;;;;;;;;;5016724;28;20120;-73
2023/07/30 07:04:31;;;;;;;13.68;2.45;;;;;;;;;;5016148;28;20042;-73
2023/07/30 07:06:57;;;;;;;16.52;3.08;;;;;;;;;;5017261;28;20033;-74
2023/07/30 07:09:23;;;;;;;12.63;2.42;;;;;;;;;;5017973;28;20479;-74
2023/07/30 07:11:50;;;;;;;11.27;2.50;;;;;;;;;;5022234;28;20451;-74
2023/07/30 07:14:16;;;;;;;8.73;2.00;;;;;;;;;;5025956;28;20513;-73
2023/07/30 07:16:42;;;;;;;10.38;1.98;;;;;;;;;;5016752;28;20398;-73
2023/07/30 07:19:08;;;;;;;11.13;2.10;;;;;;;;;;5016406;28;20095;-73
2023/07/30 07:21:34;;;;;;;12.95;2.08;;;;;;;;;;4999585;28;20078;-72
2023/07/30 07:24:00;;;;;;;10.05;1.90;;;;;;;;;;5027166;28;20048;-73
2023/07/30 07:26:26;;;;;;;11.05;2.40;;;;;;;;;;5013101;28;20499;-73
2023/07/30 07:28:52;;;;;;;10.57;2.22;;;;;;;;;;5016571;28;20056;-74
2023/07/30 07:31:18;;;;;;;10.55;2.38;;;;;;;;;;5035998;28;20040;-74
2023/07/30 07:33:45;;;;;;;14.38;2.67;;;;;;;;;;5006116;28;20112;-72
2023/07/30 07:36:11;;;;;;;15.60;2.78;;;;;;;;;;5025549;28;20041;-72
2023/07/30 07:38:37;;;;;;;10.60;2.35;;;;;;;;;;5029459;28;20040;-74
2023/07/30 07:41:04;;;;;;;11.07;2.15;;;;;;;;;;5016320;28;20445;-72
2023/07/30 07:43:30;;;;;;;11.65;2.13;;;;;;;;;;5024240;28;20081;-75
2023/07/30 07:45:56;;;;;;;7.63;2.30;;;;;;;;;;5016021;28;20037;-74
2023/07/30 07:48:22;;;;;;;11.68;2.45;;;;;;;;;;5015901;28;20053;-74
2023/07/30 07:50:48;;;;;;;9.88;2.05;;;;;;;;;;5014556;28;20044;-73
2023/07/30 07:53:14;;;;;;;8.63;2.00;;;;;;;;;;5016694;28;20052;-74
2023/07/30 07:55:40;;;;;;;12.23;2.60;;;;;;;;;;5032874;28;20071;-73
2023/07/30 07:58:06;;;;;;;14.43;2.65;;;;;;;;;;5034046;28;20410;-73
2023/07/30 08:00:32;;;;;;;9.32;2.00;;;;;;;;;;5024654;28;20037;-73
2023/07/30 08:02:58;;;;;;;10.90;2.17;;;;;;;;;;5025751;28;20045;-73
2023/07/30 08:05:25;;;;;;;12.80;2.40;;;;;;;;;;5016067;28;20041;-73
2023/07/30 08:07:51;;;;;;;8.43;2.28;;;;;;;;;;4998796;28;20057;-73
2023/07/30 08:10:20;;;;;;;11.65;2.10;;;;;;;;;;5015548;28;20042;-73
2023/07/30 08:12:48;;;;;;;8.13;2.38;;;;;;;;;;5021201;28;20546;-73
2023/07/30 08:15:14;;;;;;;9.48;2.47;;;;;;;;;;5012730;28;20487;-73
2023/07/30 08:17:40;;;;;;;13.43;2.10;;;;;;;;;;5015095;28;20072;-74
2023/07/30 08:20:06;;;;;;;9.68;2.30;;;;;;;;;;5012216;28;20052;-72
2023/07/30 08:22:33;;;;;;;11.75;2.30;;;;;;;;;;4998229;28;20041;-73
2023/07/30 08:24:59;;;;;;;9.27;2.13;;;;;;;;;;5031610;28;20044;-74
2023/07/30 08:27:25;;;;;;;11.85;2.28;;;;;;;;;;5022681;28;20123;-73
2023/07/30 08:29:51;;;;;;;11.15;2.17;;;;;;;;;;4998437;28;20052;-73
2023/07/30 08:32:17;;;;;;;15.35;2.67;;;;;;;;;;5040384;28;20049;-74
2023/07/30 08:34:43;;;;;;;13.60;2.45;;;;;;;;;;5027702;28;20517;-74
2023/07/30 08:37:09;;;;;;;11.82;2.45;;;;;;;;;;5025537;28;20045;-74
2023/07/30 08:39:35;;;;;;;24.00;3.63;;;;;;;;;;5012589;28;20043;-73
2023/07/30 08:42:01;;;;;;;8.43;2.05;;;;;;;;;;5014106;28;20511;-72
2023/07/30 08:44:27;;;;;;;9.48;2.28;;;;;;;;;;5051126;28;20048;-73
2023/07/30 08:46:53;;;;;;;22.77;2.85;;;;;;;;;;4998476;28;20517;-75
2023/07/30 08:49:19;;;;;;;11.85;2.50;;;;;;;;;;5033841;28;20041;-73
2023/07/30 08:51:46;;;;;;;23.23;3.72;;;;;;;;;;5039933;28;20052;-70
2023/07/30 08:54:13;;;;;;;22.00;3.72;;;;;;;;;;5049681;28;20136;-73
2023/07/30 08:56:39;;;;;;;64.78;6.35;;;;;;;;;;5054048;28;20124;-72
2023/07/30 08:59:06;;;;;;;12.05;2.45;;;;;;;;;;5062758;28;20045;-70
2023/07/30 09:01:38;;;;;;;10.98;2.10;;;;;;;;;;5021897;28;20045;-70
2023/07/30 09:04:05;;;;;;;6.72;1.58;;;;;;;;;;5049922;28;20094;-70
2023/07/30 09:06:32;;;;;;;6.60;1.70;;;;;;;;;;5049246;28;20029;-71
2023/07/30 09:08:58;;;;;;;8.82;2.08;;;;;;;;;;5030794;28;20037;-75
2023/07/30 09:11:27;;;;;;;6.30;1.85;;;;;;;;;;5046592;28;20041;-71
2023/07/30 09:13:57;;;;;;;8.02;1.90;;;;;;;;;;5048613;28;20041;-75
2023/07/30 09:16:25;;;;;;;8.40;1.88;;;;;;;;;;5033602;28;20069;-75
2023/07/30 09:18:53;;;;;;;7.18;1.65;;;;;;;;;;5031656;28;20510;-71
2023/07/30 09:21:19;;;;;;;6.25;1.73;;;;;;;;;;5045447;28;20052;-71
2023/07/30 09:23:46;;;;;;;5.65;1.60;;;;;;;;;;5047152;28;20044;-71
2023/07/30 09:26:13;;;;;;;7.65;2.00;;;;;;;;;;5027643;28;20398;-76
2023/07/30 09:28:40;;;;;;;7.20;1.60;;;;;;;;;;5035084;28;20052;-76
2023/07/30 09:31:09;;;;;;;9.43;2.10;;;;;;;;;;5048097;28;20045;-75
2023/07/30 09:33:36;;;;;;;9.10;1.88;;;;;;;;;;5044636;28;20037;-76
2023/07/30 09:36:02;;;;;;;7.28;1.98;;;;;;;;;;5023091;28;20047;-75
2023/07/30 09:38:32;;;;;;;7.97;1.90;;;;;;;;;;5030547;28;20589;-76
2023/07/30 09:41:02;;;;;;;5.80;1.90;;;;;;;;;;5038332;28;20507;-70
2023/07/30 09:43:35;;;;;;;7.40;1.65;;;;;;;;;;5041923;28;20045;-70
2023/07/30 09:46:02;;;;;;;7.32;1.58;;;;;;;;;;5022833;28;20076;-70
2023/07/30 09:48:30;;;;;;;4.82;1.48;;;;;;;;;;5030575;28;20083;-71
2023/07/30 09:50:58;;;;;;;7.88;1.92;;;;;;;;;;5036886;28;20505;-71
2023/07/30 09:53:25;;;;;;;8.07;1.75;;;;;;;;;;5046769;28;20036;-76
2023/07/30 09:55:51;;;;;;;8.85;2.13;;;;;;;;;;5013358;28;20041;-75
2023/07/30 09:58:17;;;;;;;11.63;2.03;;;;;;;;;;5014371;28;20479;-76
2023/07/30 10:00:45;;;;;;;6.57;1.75;;;;;;;;;;5029180;28;20041;-74
2023/07/30 10:03:12;;;;;;;9.07;2.47;;;;;;;;;;5033704;28;20517;-72
2023/07/30 10:05:39;;;;;;;8.18;1.50;;;;;;;;;;5028185;28;20163;-71
2023/07/30 10:08:11;;;;;;;8.52;1.70;;;;;;;;;;5033384;28;20473;-73
2023/07/30 10:10:37;;;;;;;7.85;2.05;;;;;;;;;;5033583;28;20498;-73
2023/07/30 10:13:08;;;;;;;5.78;1.70;;;;;;;;;;5032022;28;20045;-71
2023/07/30 10:15:35;;;;;;;8.77;1.65;;;;;;;;;;5037187;28;20048;-72
2023/07/30 10:18:01;;;;;;;8.85;1.85;;;;;;;;;;5049314;28;20064;-72
2023/07/30 10:20:29;;;;;;;9.25;1.70;;;;;;;;;;5033513;28;20077;-72
2023/07/30 10:22:56;;;;;;;9.90;1.98;;;;;;;;;;5036346;28;20045;-70
2023/07/30 10:25:23;;;;;;;7.70;1.90;;;;;;;;;;5010284;28;20033;-71
2023/07/30 10:27:50;;;;;;;6.53;1.88;;;;;;;;;;5032875;28;20120;-72
2023/07/30 10:30:17;;;;;;;5.35;1.60;;;;;;;;;;5034077;28;20041;-71
2023/07/30 10:32:55;;;;;;;9.05;1.75;;;;;;;;;;5026913;28;20396;-73
2023/07/30 10:35:41;;;;;;;10.70;1.77;;;;;;;;;;5031119;28;20033;-72
2023/07/30 10:38:28;;;;;;;11.35;1.92;;;;;;;;;;5028554;28;20384;-70
2023/07/30 10:41:03;;;;;;;6.75;1.45;;;;;;;;;;5027691;28;20041;-72
2023/07/30 10:43:30;;;;;;;7.97;2.03;;;;;;;;;;5028844;28;20067;-72
2023/07/30 10:45:56;;;;;;;8.25;1.63;;;;;;;;;;5029069;28;20124;-72
2023/07/30 10:48:32;;;;;;;10.38;1.88;;;;;;;;;;5019336;28;20053;-72
2023/07/30 10:51:00;;;;;;;7.03;1.70;;;;;;;;;;5035529;28;20053;-73
2023/07/30 10:53:26;;;;;;;5.38;1.38;;;;;;;;;;5048781;28;20500;-71
2023/07/30 10:55:53;;;;;;;8.35;1.65;;;;;;;;;;5046547;28;20041;-73
2023/07/30 10:58:19;;;;;;;8.65;1.50;;;;;;;;;;5049332;28;20037;-71
2023/07/30 11:00:45;;;;;;;7.32;1.60;;;;;;;;;;5041511;28;20049;-72
2023/07/30 11:03:11;;;;;;;7.78;1.50;;;;;;;;;;5003400;28;20052;-73
2023/07/30 11:05:40;;;;;;;9.45;2.00;;;;;;;;;;5026184;28;20045;-74
2023/07/30 11:08:06;;;;;;;8.57;1.50;;;;;;;;;;5018713;28;20042;-72
2023/07/30 11:10:32;;;;;;;9.40;1.70;;;;;;;;;;5027651;28;20120;-71
2023/07/30 11:12:59;;;;;;;8.23;1.80;;;;;;;;;;5014644;28;20555;-71
2023/07/30 11:15:25;;;;;;;8.20;1.75;;;;;;;;;;5016564;28;20093;-70
2023/07/30 11:17:55;;;;;;;8.95;1.60;;;;;;;;;;5032699;28;20053;-70
2023/07/30 11:20:26;;;;;;;6.65;1.80;;;;;;;;;;5015840;28;20534;-70
2023/07/30 11:22:53;;;;;;;8.35;2.00;;;;;;;;;;5048489;28;20509;-70
2023/07/30 11:25:19;;;;;;;10.18;1.73;;;;;;;;;;5031364;28;20060;-72
2023/07/30 11:27:48;;;;;;;8.63;1.60;;;;;;;;;;5036329;28;20399;-74
2023/07/30 11:30:14;;;;;;;6.90;1.85;;;;;;;;;;5048509;28;20053;-72
2023/07/30 11:32:41;;;;;;;9.05;1.85;;;;;;;;;;5011031;28;20575;-75
2023/07/30 11:35:07;;;;;;;6.35;1.75;;;;;;;;;;5035518;28;20091;-75
2023/07/30 11:37:34;;;;;;;10.85;2.05;;;;;;;;;;5045857;28;20045;-74
2023/07/30 11:40:00;;;;;;;11.50;1.70;;;;;;;;;;5034855;28;20037;-73
2023/07/30 11:42:29;;;;;;;8.75;1.63;;;;;;;;;;5030910;28;20067;-73
2023/07/30 11:44:55;;;;;;;9.43;2.22;;;;;;;;;;5026985;28;20048;-72
2023/07/30 11:47:22;;;;;;;6.78;1.83;;;;;;;;;;5005547;28;20042;-70
2023/07/30 11:49:58;;;;;;;8.85;2.15;;;;;;;;;;5031360;28;20037;-69
2023/07/30 11:52:24;;;;;;;9.20;1.67;;;;;;;;;;5044793;28;20437;-69
2023/07/30 11:55:06;;;;;;;7.28;1.50;;;;;;;;;;5052322;28;20051;-73
2023/07/30 11:57:35;;;;;;;5.78;1.25;;;;;;;;;;5050354;28;20040;-70
2023/07/30 12:00:03;;;;;;;8.18;1.85;;;;;;;;;;5034382;28;20034;-70
2023/07/30 12:02:30;;;;;;;8.52;1.70;;;;;;;;;;5032190;28;20108;-71
2023/07/30 12:04:56;;;;;;;8.13;1.95;;;;;;;;;;5033239;28;20065;-70
2023/07/30 12:07:23;;;;;;;7.20;1.95;;;;;;;;;;5031875;28;20064;-70
2023/07/30 12:09:49;;;;;;;8.90;2.03;;;;;;;;;;5032981;28;20043;-70
2023/07/30 12:12:15;;;;;;;19.95;2.20;;;;;;;;;;5019159;28;20045;-73
2023/07/30 12:14:52;;;;;;;16.25;3.28;;;;;;;;;;5014700;28;20077;-73
2023/07/30 12:17:19;;;;;;;10.25;2.00;;;;;;;;;;5038644;28;20445;-74
2023/07/30 12:19:45;;;;;;;33.58;4.05;;;;;;;;;;5018836;28;20049;-72
2023/07/30 12:22:11;;;;;;;10.40;1.92;;;;;;;;;;5037937;28;20051;-72
2023/07/30 12:24:37;;;;;;;8.43;1.60;;;;;;;;;;5039166;28;20499;-72
2023/07/30 12:27:03;;;;;;;6.00;1.83;;;;;;;;;;5031581;28;20388;-73
2023/07/30 12:29:29;;;;;;;9.98;1.63;;;;;;;;;;5034125;28;20042;-71
2023/07/30 12:31:55;;;;;;;7.18;1.80;;;;;;;;;;5045563;28;20132;-70
2023/07/30 12:34:23;;;;;;;9.63;2.17;;;;;;;;;;5051096;28;20049;-74
2023/07/30 12:36:49;;;;;;;10.75;1.70;;;;;;;;;;5033698;28;20048;-69
2023/07/30 12:39:15;;;;;;;7.43;1.60;;;;;;;;;;5037548;28;20044;-71
2023/07/30 12:41:41;;;;;;;6.13;1.40;;;;;;;;;;5039587;28;20040;-74
2023/07/30 12:44:09;;;;;;;12.18;2.05;;;;;;;;;;5039057;28;20049;-73
2023/07/30 12:46:35;;;;;;;9.38;1.60;;;;;;;;;;5042813;28;20120;-73
2023/07/30 12:49:03;;;;;;;19.67;3.42;;;;;;;;;;5031388;28;20045;-72
2023/07/30 12:51:30;;;;;;;10.38;2.03;;;;;;;;;;5033785;28;20454;-72
2023/07/30 12:53:56;;;;;;;6.90;1.50;;;;;;;;;;5034972;28;20053;-71
2023/07/30 12:56:22;;;;;;;11.02;1.80;;;;;;;;;;5045546;28;20049;-73
2023/07/30 12:58:48;;;;;;;6.95;1.95;;;;;;;;;;5032461;28;20505;-73
2023/07/30 13:01:14;;;;;;;13.20;2.40;;;;;;;;;;5032961;28;20041;-74
2023/07/30 13:03:44;;;;;;;10.27;1.90;;;;;;;;;;5038829;28;20045;-71
2023/07/30 13:06:11;;;;;;;8.50;1.77;;;;;;;;;;5028233;28;20037;-73
2023/07/30 13:08:39;;;;;;;8.15;2.08;;;;;;;;;;5037927;28;20398;-73
2023/07/30 13:11:05;;;;;;;7.90;2.05;;;;;;;;;;5043639;28;20060;-72
2023/07/30 13:13:31;;;;;;;10.93;1.80;;;;;;;;;;5030162;28;20196;-70
2023/07/30 13:15:57;;;;;;;6.55;1.40;;;;;;;;;;5014277;28;20045;-71
2023/07/30 13:18:24;;;;;;;6.35;1.63;;;;;;;;;;5044701;28;20411;-72
2023/07/30 13:20:50;;;;;;;8.75;1.70;;;;;;;;;;5040051;28;20068;-71
2023/07/30 13:23:16;;;;;;;7.68;1.42;;;;;;;;;;5040538;28;20052;-71
2023/07/30 13:25:42;;;;;;;5.38;1.38;;;;;;;;;;5032000;28;21508;-75
2023/07/30 13:28:08;;;;;;;5.50;1.98;;;;;;;;;;5032789;28;20046;-73
2023/07/30 13:30:34;;;;;;;8.98;1.42;;;;;;;;;;5030772;28;20488;-70
2023/07/30 13:33:01;;;;;;;10.52;2.08;;;;;;;;;;5041932;28;20057;-72
2023/07/30 13:35:27;;;;;;;4.95;1.42;;;;;;;;;;5035210;28;20051;-73
2023/07/30 13:37:53;;;;;;;6.85;1.25;;;;;;;;;;5045771;28;20380;-71
2023/07/30 13:40:19;;;;;;;7.45;1.50;;;;;;;;;;5031391;28;20041;-73
2023/07/30 13:42:45;;;;;;;6.07;1.50;;;;;;;;;;5022178;28;20120;-72
2023/07/30 13:45:11;;;;;;;6.95;1.50;;;;;;;;;;5039025;28;20095;-71
2023/07/30 13:47:37;;;;;;;6.15;1.67;;;;;;;;;;5033115;28;20371;-71
2023/07/30 13:50:03;;;;;;;7.60;1.70;;;;;;;;;;5042359;28;20041;-70
2023/07/30 13:52:29;;;;;;;6.57;1.35;;;;;;;;;;5019567;28;20120;-69
2023/07/30 13:54:56;;;;;;;5.93;1.30;;;;;;;;;;5044406;28;20045;-70
2023/07/30 13:57:25;;;;;;;5.82;1.60;;;;;;;;;;5029656;28;20041;-67
2023/07/30 13:59:52;;;;;;;9.13;1.70;;;;;;;;;;5047899;28;20042;-68
2023/07/30 14:02:18;;;;;;;9.63;1.90;;;;;;;;;;5039872;28;20041;-69
2023/07/30 14:04:44;;;;;;;7.72;1.30;;;;;;;;;;5050955;28;20539;-68
2023/07/30 14:07:10;;;;;;;8.23;1.90;;;;;;;;;;5034432;28;20037;-70
2023/07/30 14:09:36;;;;;;;8.13;1.92;;;;;;;;;;5040421;28;20045;-69
2023/07/30 14:12:03;;;;;;;7.60;1.75;;;;;;;;;;5039175;28;20044;-72
2023/07/30 14:14:29;;;;;;;5.10;1.50;;;;;;;;;;5039359;28;20041;-69
2023/07/30 14:16:55;;;;;;;4.32;1.25;;;;;;;;;;5044972;28;20037;-69
2023/07/30 14:19:21;;;;;;;5.45;1.27;;;;;;;;;;5046225;28;20495;-69
2023/07/30 14:21:47;;;;;;;8.75;1.80;;;;;;;;;;5037315;28;20120;-70
2023/07/30 14:24:13;;;;;;;7.38;1.67;;;;;;;;;;5035639;28;20046;-74
2023/07/30 14:26:39;;;;;;;5.57;1.40;;;;;;;;;;5033788;28;20037;-76
2023/07/30 14:29:05;;;;;;;7.28;1.52;;;;;;;;;;5038815;28;20041;-75